Time;durP1;ratioP1;P1;durP2;ratioP2;P2;SDS_P1;SDS_P2;PMS_P1;PMS_P2;Temp;Humidity;BMP_temperature;BMP_pressure;BME280_temperature;BME280_humidity;BME280_pressure;Samples;Min_cycle;Max_cycle;Signal;HPM_P1;HPM_P2
2021/12/22 00:00:13;;;;;;;7.57;2.35;;;;;;;18.45;41.21;101296.81;4176037;28;20370;-51
2021/12/22 00:02:17;;;;;;;5.88;2.50;;;;;;;18.41;41.22;101283.72;4165995;28;20373;-47
2021/12/22 00:04:24;;;;;;;5.07;2.00;;;;;;;18.47;41.29;101283.56;4180088;28;20041;-49
2021/12/22 00:06:32;;;;;;;28.45;2.90;;;;;;;18.45;41.92;101277.41;4168120;28;20053;-52
2021/12/22 00:08:33;;;;;;;9.48;2.53;;;;;;;18.46;42.53;101281.00;4171119;28;20029;-46
2021/12/22 00:10:34;;;;;;;14.45;3.13;;;;;;;18.50;42.78;101290.50;4180627;28;20087;-49
2021/12/22 00:12:36;;;;;;;6.20;2.72;;;;;;;18.51;42.49;101290.25;4178212;28;20041;-46
2021/12/22 00:14:38;;;;;;;9.40;2.55;;;;;;;18.53;42.36;101287.22;4166280;28;20091;-49
2021/12/22 00:16:39;;;;;;;8.75;2.45;;;;;;;18.52;42.58;101280.84;4166451;28;20459;-47
2021/12/22 00:18:41;;;;;;;12.25;2.60;;;;;;;18.53;42.39;101282.50;4165510;28;20099;-48
2021/12/22 00:20:42;;;;;;;9.00;2.42;;;;;;;18.54;42.70;101286.13;4164738;28;20107;-47
2021/12/22 00:22:43;;;;;;;10.70;2.60;;;;;;;18.56;42.69;101291.44;4165993;28;20099;-48
2021/12/22 00:24:45;;;;;;;13.30;2.35;;;;;;;18.56;42.50;101288.66;4166097;28;20428;-50
2021/12/22 00:26:46;;;;;;;7.05;2.25;;;;;;;18.57;42.77;101280.06;4165931;28;20045;-49
2021/12/22 00:28:49;;;;;;;6.18;2.08;;;;;;;18.57;42.75;101271.75;4168403;28;20102;-48
2021/12/22 00:30:53;;;;;;;9.48;2.22;;;;;;;18.55;42.17;101268.38;4182483;28;20132;-49
2021/12/22 00:33:02;;;;;;;6.20;2.35;;;;;;;18.53;42.51;101265.06;4182144;28;20107;-46
2021/12/22 00:35:04;;;;;;;4.65;2.35;;;;;;;18.57;42.36;101274.53;4181949;28;20098;-49
2021/12/22 00:37:06;;;;;;;7.82;2.13;;;;;;;18.57;42.30;101273.69;4181362;28;20036;-48
2021/12/22 00:39:07;;;;;;;3.30;1.92;;;;;;;18.57;42.46;101271.75;4181556;28;20041;-50
2021/12/22 00:41:09;;;;;;;3.90;2.17;;;;;;;18.60;42.13;101273.16;4181932;28;20041;-52
2021/12/22 00:43:14;;;;;;;6.50;2.40;;;;;;;18.59;42.35;101272.31;4181438;28;20102;-48
2021/12/22 00:45:17;;;;;;;4.82;2.28;;;;;;;18.58;42.19;101265.13;4182403;28;20079;-47
2021/12/22 00:47:21;;;;;;;3.97;2.00;;;;;;;18.61;42.16;101275.69;4181664;28;20040;-48
2021/12/22 00:49:22;;;;;;;10.55;2.78;;;;;;;18.61;42.42;101270.16;4181240;28;20037;-46
2021/12/22 00:51:24;;;;;;;8.43;2.17;;;;;;;18.62;42.16;101266.28;4181690;28;20094;-48
2021/12/22 00:53:25;;;;;;;5.88;1.90;;;;;;;18.61;42.37;101267.38;4181682;28;20049;-51
2021/12/22 00:55:27;;;;;;;5.88;2.13;;;;;;;18.58;42.55;101256.81;4182124;28;20044;-47
2021/12/22 00:57:31;;;;;;;4.47;2.33;;;;;;;18.60;42.46;101268.47;4181239;28;20411;-47
2021/12/22 00:59:36;;;;;;;5.18;2.20;;;;;;;18.63;42.46;101262.41;4179994;28;20111;-47
2021/12/22 01:01:38;;;;;;;4.45;2.38;;;;;;;18.64;42.00;101257.69;4182239;28;20029;-49
2021/12/22 01:03:39;;;;;;;16.00;2.50;;;;;;;18.64;42.32;101252.16;4182151;28;20091;-47
2021/12/22 01:05:41;;;;;;;3.10;2.13;;;;;;;18.64;42.50;101247.44;4181662;28;20126;-50
2021/12/22 01:07:45;;;;;;;5.18;2.00;;;;;;;18.65;42.04;101248.31;4167000;28;20532;-46
2021/12/22 01:09:46;;;;;;;5.63;2.53;;;;;;;18.65;42.21;101243.59;4164555;28;20465;-48
2021/12/22 01:11:49;;;;;;;3.40;1.85;;;;;;;18.66;42.39;101236.13;4165018;28;20107;-48
2021/12/22 01:13:50;;;;;;;5.18;2.40;;;;;;;18.65;42.13;101237.22;4164887;28;20084;-47
2021/12/22 01:15:52;;;;;;;5.25;1.92;;;;;;;18.65;42.17;101226.97;4165293;28;20076;-48
2021/12/22 01:18:04;;;;;;;2.78;1.88;;;;;;;18.64;41.90;101216.94;4164890;28;20112;-47
2021/12/22 01:20:16;;;;;;;3.58;1.80;;;;;;;18.64;42.32;101225.25;4165078;28;20132;-47
2021/12/22 01:22:29;;;;;;;8.60;2.97;;;;;;;18.63;41.87;101218.06;4164873;28;20045;-48
2021/12/22 01:26:34;;;;;;;2.75;1.88;;;;;;;18.65;42.23;101215.03;4165000;28;20029;-51
2021/12/22 01:28:42;;;;;;;5.20;2.20;;;;;;;18.66;42.22;101202.84;4164259;28;20041;-48
2021/12/22 01:30:47;;;;;;;4.65;2.00;;;;;;;18.66;42.07;101200.91;4164599;28;20111;-47
2021/12/22 01:32:52;;;;;;;3.53;1.73;;;;;;;18.66;42.10;101195.38;4164845;28;20096;-46
2021/12/22 01:34:53;;;;;;;3.55;2.28;;;;;;;18.66;42.27;101200.91;4164691;28;20171;-48
2021/12/22 01:36:55;;;;;;;4.00;1.98;;;;;;;18.66;42.06;101213.94;4165081;28;20439;-47
2021/12/22 01:38:56;;;;;;;4.93;2.20;;;;;;;18.61;42.25;101211.13;4164864;28;20029;-53
2021/12/22 01:40:57;;;;;;;4.70;2.20;;;;;;;18.62;41.87;101227.47;4165140;28;20042;-47
2021/12/22 01:43:01;;;;;;;6.88;2.15;;;;;;;18.66;42.01;101236.94;4164810;28;20049;-47
2021/12/22 01:45:48;;;;;;;3.40;2.10;;;;;;;18.63;42.34;101231.91;4164925;28;20041;-48
2021/12/22 01:50:11;;;;;;;5.28;1.67;;;;;;;18.68;42.06;101209.78;4165015;28;20087;-47
2021/12/22 01:52:13;;;;;;;3.28;2.10;;;;;;;18.67;41.89;101208.13;4163829;28;20041;-46
2021/12/22 01:54:32;;;;;;;4.40;2.35;;;;;;;18.64;41.94;101203.09;4164233;28;20115;-50
2021/12/22 01:56:34;;;;;;;4.88;1.98;;;;;;;18.66;42.30;101195.38;4163751;28;20045;-50
2021/12/22 01:58:39;;;;;;;5.75;2.33;;;;;;;18.62;41.96;101180.34;4163673;28;20439;-48
2021/12/22 02:00:41;;;;;;;2.97;2.05;;;;;;;18.63;42.13;101179.25;4164129;28;20037;-49
2021/12/22 02:02:43;;;;;;;2.78;1.88;;;;;;;18.66;42.10;101189.84;4164768;28;20091;-52
2021/12/22 02:04:45;;;;;;;4.07;2.03;;;;;;;18.56;41.90;101159.22;4164631;28;20503;-45
2021/12/22 02:06:48;;;;;;;3.97;1.85;;;;;;;18.66;41.93;101177.91;4164912;28;20041;-46
2021/12/22 02:08:52;;;;;;;3.33;1.67;;;;;;;18.66;42.17;101169.59;4162347;28;20041;-47
2021/12/22 02:10:53;;;;;;;3.05;1.83;;;;;;;18.58;41.91;101153.41;4164021;28;20407;-50
2021/12/22 02:12:55;;;;;;;4.60;2.10;;;;;;;18.65;42.00;101157.66;4164346;28;20079;-48
2021/12/22 02:14:57;;;;;;;6.40;1.95;;;;;;;18.64;42.22;101155.97;4163510;28;20045;-48
2021/12/22 02:16:58;;;;;;;4.63;2.15;;;;;;;18.58;42.23;101143.16;4163931;28;20041;-48
2021/12/22 02:19:01;;;;;;;5.65;1.98;;;;;;;18.65;42.49;101146.59;4163808;28;20049;-47
2021/12/22 02:21:04;;;;;;;4.15;2.05;;;;;;;18.64;41.76;101142.13;4164195;28;20045;-49
2021/12/22 02:23:06;;;;;;;3.38;1.98;;;;;;;18.65;41.98;101135.50;4163858;28;20042;-50
2021/12/22 02:25:15;;;;;;;3.55;2.20;;;;;;;18.65;42.01;101131.91;4164381;28;20038;-48
2021/12/22 02:27:48;;;;;;;5.90;2.00;;;;;;;18.64;41.77;101142.13;4163607;28;20041;-48
2021/12/22 02:29:46;;;;;;;5.65;2.70;;;;;;;18.55;41.76;101110.41;4163884;28;20439;-47
2021/12/22 02:32:01;;;;;;;;;;;;;;;18.64;41.76;101114.41;4164103;28;20099;-46
2021/12/22 02:34:02;;;;;;;4.50;1.90;;;;;;;18.69;41.67;101111.72;4164181;28;19967;-47
2021/12/22 02:38:14;;;;;;;3.60;1.73;;;;;;;18.68;41.91;101087.84;4163837;28;20029;-51
2021/12/22 02:40:18;;;;;;;3.33;2.05;;;;;;;18.66;41.63;101090.03;4164094;28;20111;-50
2021/12/22 02:42:23;;;;;;;2.47;1.90;;;;;;;18.65;41.70;101093.91;4161999;28;20038;-47
2021/12/22 02:44:25;;;;;;;3.55;1.80;;;;;;;18.65;41.82;101093.09;4164134;28;20042;-51
2021/12/22 02:46:33;;;;;;;4.97;1.90;;;;;;;18.62;41.61;101088.88;4163351;28;20017;-50
2021/12/22 02:48:34;;;;;;;4.63;1.92;;;;;;;18.63;42.00;101073.94;4161852;28;20096;-52
2021/12/22 02:50:40;;;;;;;2.85;2.03;;;;;;;18.62;41.97;101065.88;4164179;28;20025;-50
2021/12/22 02:53:04;;;;;;;3.72;1.70;;;;;;;18.61;41.93;101070.59;4163187;28;20045;-49
2021/12/22 02:55:06;;;;;;;3.17;2.22;;;;;;;18.59;41.86;101047.81;4162087;28;20067;-51
2021/12/22 02:57:23;;;;;;;2.80;2.10;;;;;;;18.59;42.05;101050.59;4164448;28;20022;-48
2021/12/22 02:59:49;;;;;;;3.85;1.80;;;;;;;18.62;41.69;101044.53;4164032;28;20083;-49
2021/12/22 03:02:17;;;;;;;2.92;2.10;;;;;;;18.56;41.65;101022.59;4163687;28;20096;-48
2021/12/22 03:04:27;;;;;;;2.50;1.90;;;;;;;18.61;42.08;101009.63;4170771;28;20053;-48
2021/12/22 03:08:30;;;;;;;2.17;1.88;;;;;;;18.61;41.71;101029.03;4183352;28;20083;-49
2021/12/22 03:10:33;;;;;;;2.63;2.00;;;;;;;18.55;41.59;101027.28;4182760;28;20049;-50
2021/12/22 03:12:36;;;;;;;3.05;2.05;;;;;;;18.57;41.87;101041.72;4183670;28;20028;-46
2021/12/22 03:14:38;;;;;;;2.25;1.73;;;;;;;18.59;41.71;101047.81;4181400;28;20469;-47
2021/12/22 03:16:43;;;;;;;2.97;2.20;;;;;;;18.54;41.62;101018.13;4183067;28;20546;-50
2021/12/22 03:18:46;;;;;;;2.17;1.92;;;;;;;18.57;42.00;101008.47;4182818;28;20118;-46
2021/12/22 03:20:54;;;;;;;2.78;1.83;;;;;;;18.57;41.80;100996.56;4182672;28;20060;-48
2021/12/22 03:22:55;;;;;;;2.47;1.80;;;;;;;18.57;42.05;100991.84;4182693;28;20049;-47
2021/12/22 03:24:56;;;;;;;1.95;1.55;;;;;;;18.57;41.85;101002.94;4181432;28;20465;-46
2021/12/22 03:27:03;;;;;;;3.30;1.95;;;;;;;18.50;41.55;100996.75;4181385;28;20044;-52
2021/12/22 03:29:04;;;;;;;4.43;2.35;;;;;;;18.55;41.72;100999.56;4182808;28;20045;-49
2021/12/22 03:31:06;;;;;;;3.60;1.80;;;;;;;18.55;41.89;101002.34;4183723;28;20086;-52
2021/12/22 03:33:08;;;;;;;3.97;2.25;;;;;;;18.55;42.01;100988.47;4180118;28;20091;-47
2021/12/22 03:35:17;;;;;;;2.17;1.80;;;;;;;18.56;41.57;100970.78;4167286;28;20103;-48
2021/12/22 03:37:19;;;;;;;3.60;2.00;;;;;;;18.56;41.65;100962.47;4166362;28;20107;-50
2021/12/22 03:39:20;;;;;;;2.40;2.03;;;;;;;18.55;41.59;100971.84;4167227;28;20046;-47
2021/12/22 03:41:22;;;;;;;3.90;1.92;;;;;;;18.55;41.56;100985.72;4166577;28;20104;-47
2021/12/22 03:43:24;;;;;;;2.60;1.92;;;;;;;18.56;41.50;100983.81;4166972;28;20033;-46
2021/12/22 03:45:25;;;;;;;3.13;2.03;;;;;;;18.54;41.92;100993.19;4165724;28;20412;-47
2021/12/22 03:47:29;;;;;;;3.10;2.00;;;;;;;18.54;41.66;100984.88;4166156;28;20080;-48
2021/12/22 03:49:30;;;;;;;3.00;1.98;;;;;;;18.54;41.53;100981.28;4165947;28;20099;-49
2021/12/22 03:51:32;;;;;;;2.80;2.10;;;;;;;18.53;41.56;100976.84;4179678;28;20045;-46
2021/12/22 03:53:33;;;;;;;2.47;2.00;;;;;;;18.51;41.78;100971.56;4166516;28;20373;-50
2021/12/22 03:55:35;;;;;;;2.53;1.90;;;;;;;18.50;41.64;100969.03;4165579;28;20037;-49
2021/12/22 03:57:36;;;;;;;2.97;2.10;;;;;;;18.52;41.88;100967.69;4182323;28;20029;-47
2021/12/22 03:59:38;;;;;;;4.25;2.13;;;;;;;18.52;41.64;100961.31;4182160;28;20037;-48
2021/12/22 04:01:39;;;;;;;4.05;1.92;;;;;;;18.51;41.89;100959.66;4182551;28;20094;-48
2021/12/22 04:03:44;;;;;;;2.10;1.63;;;;;;;18.49;41.56;100957.13;4182482;28;20060;-49
2021/12/22 04:05:48;;;;;;;4.90;1.88;;;;;;;18.45;41.81;100949.59;4181279;28;20041;-48
2021/12/22 04:07:50;;;;;;;2.30;1.73;;;;;;;18.49;41.94;100951.59;4170398;28;20038;-47
2021/12/22 04:09:53;;;;;;;2.38;1.90;;;;;;;18.50;41.41;100957.97;4166357;28;20443;-48
2021/12/22 04:11:55;;;;;;;2.95;2.05;;;;;;;18.49;41.90;100934.13;4166349;28;20029;-49
2021/12/22 04:13:56;;;;;;;2.78;2.10;;;;;;;18.50;41.52;100930.25;4166129;28;20041;-49
2021/12/22 04:15:58;;;;;;;3.55;2.00;;;;;;;18.48;41.53;100918.59;4164002;28;20041;-49
2021/12/22 04:17:59;;;;;;;2.10;1.90;;;;;;;18.47;41.80;100914.16;4164628;28;20432;-46
2021/12/22 04:20:01;;;;;;;2.83;2.10;;;;;;;18.46;41.71;100909.72;4166196;28;20107;-52
2021/12/22 04:22:03;;;;;;;2.97;2.13;;;;;;;18.44;41.76;100903.59;4165681;28;20083;-47
2021/12/22 04:24:06;;;;;;;4.63;2.40;;;;;;;18.46;41.74;100904.16;4180587;28;20098;-48
2021/12/22 04:26:08;;;;;;;3.50;1.88;;;;;;;18.43;41.86;100905.53;4168135;28;20148;-50
2021/12/22 04:28:10;;;;;;;2.92;2.13;;;;;;;18.46;41.71;100918.03;4164275;28;20030;-47
2021/12/22 04:30:14;;;;;;;3.20;2.30;;;;;;;18.37;42.03;100908.53;4177530;28;20037;-49
2021/12/22 04:32:24;;;;;;;3.35;2.42;;;;;;;18.40;41.77;100892.22;4182157;28;20037;-49
2021/12/22 04:34:26;;;;;;;2.72;1.75;;;;;;;18.41;42.09;100882.78;4178132;28;20048;-49
2021/12/22 04:36:27;;;;;;;2.97;2.13;;;;;;;18.41;41.93;100868.94;4182144;28;20542;-50
2021/12/22 04:38:28;;;;;;;3.47;2.60;;;;;;;18.40;42.23;100858.97;4181958;28;20029;-48
2021/12/22 04:40:30;;;;;;;3.17;1.90;;;;;;;18.38;42.13;100849.28;4173927;28;20135;-48
2021/12/22 04:42:34;;;;;;;2.63;2.15;;;;;;;18.36;42.01;100852.28;4165764;28;20037;-48
2021/12/22 04:44:38;;;;;;;3.78;2.00;;;;;;;18.32;41.80;100850.31;4165954;28;20041;-51
2021/12/22 04:46:40;;;;;;;2.67;2.13;;;;;;;18.39;41.72;100849.00;4164471;28;20497;-47
2021/12/22 04:48:41;;;;;;;6.35;2.33;;;;;;;18.37;41.70;100834.59;4165272;28;20037;-50
2021/12/22 04:50:42;;;;;;;4.90;2.65;;;;;;;18.37;42.19;100830.94;4165154;28;20096;-52
2021/12/22 04:52:53;;;;;;;2.88;2.05;;;;;;;18.36;42.08;100829.28;4174017;28;20134;-45
2021/12/22 04:55:04;;;;;;;2.53;1.75;;;;;;;18.37;41.68;100826.28;4182147;28;20094;-50
2021/12/22 04:57:06;;;;;;;2.97;2.10;;;;;;;18.37;41.82;100814.34;4181774;28;20114;-53
2021/12/22 04:59:07;;;;;;;2.80;2.10;;;;;;;18.34;42.01;100795.50;4180555;28;20113;-46
2021/12/22 05:01:09;;;;;;;4.95;2.38;;;;;;;18.32;41.79;100783.81;4180400;28;20523;-50
2021/12/22 05:03:10;;;;;;;3.58;2.30;;;;;;;18.34;41.74;100781.66;4165075;28;20049;-48
2021/12/22 05:05:12;;;;;;;3.40;2.10;;;;;;;18.33;41.67;100768.91;4164659;28;20566;-48
2021/12/22 05:07:13;;;;;;;3.88;2.08;;;;;;;18.32;41.87;100756.13;4180049;28;20407;-50
2021/12/22 05:09:15;;;;;;;2.95;2.15;;;;;;;18.33;41.99;100758.66;4179524;28;20037;-50
2021/12/22 05:11:16;;;;;;;3.35;2.35;;;;;;;18.29;42.03;100741.72;4168486;28;20029;-52
2021/12/22 05:13:18;;;;;;;4.18;2.60;;;;;;;18.33;41.91;100743.97;4170785;28;20104;-52
2021/12/22 05:15:22;;;;;;;4.85;2.80;;;;;;;18.32;41.99;100739.50;4163763;28;20090;-49
2021/12/22 05:17:49;;;;;;;2.92;2.50;;;;;;;18.32;41.96;100722.88;4164759;28;20080;-48
2021/12/22 05:19:45;;;;;;;1.85;1.60;;;;;;;18.32;41.58;100711.81;4165244;28;20084;-45
2021/12/22 05:21:47;;;;;;;3.30;2.25;;;;;;;18.31;41.67;100693.53;4165512;28;20029;-46
2021/12/22 05:23:49;;;;;;;3.63;2.33;;;;;;;18.31;41.65;100691.59;4164993;28;20045;-47
2021/12/22 05:25:51;;;;;;;2.78;2.00;;;;;;;18.30;41.52;100692.69;4178341;28;20536;-49
2021/12/22 05:27:52;;;;;;;3.50;2.42;;;;;;;18.31;41.57;100693.53;4179507;28;20497;-51
2021/12/22 05:29:54;;;;;;;3.75;2.25;;;;;;;18.29;41.91;100686.31;4181735;28;20021;-46
2021/12/22 05:31:56;;;;;;;3.17;2.38;;;;;;;18.29;42.00;100683.56;4181103;28;20110;-47
2021/12/22 05:33:57;;;;;;;3.83;2.42;;;;;;;18.25;41.95;100656.66;4164228;28;20554;-49
2021/12/22 05:35:59;;;;;;;3.25;2.30;;;;;;;18.28;41.61;100656.97;4175534;28;20086;-51
2021/12/22 05:38:00;;;;;;;5.07;2.20;;;;;;;18.27;41.60;100638.66;4164378;28;20045;-47
2021/12/22 05:40:02;;;;;;;6.32;2.53;;;;;;;18.28;41.72;100636.75;4164647;28;20049;-49
2021/12/22 05:42:04;;;;;;;2.50;2.30;;;;;;;18.27;41.71;100626.75;4165078;28;20087;-49
2021/12/22 05:44:05;;;;;;;3.63;2.45;;;;;;;18.27;41.85;100627.56;4164847;28;20045;-50
2021/12/22 05:46:06;;;;;;;2.50;2.30;;;;;;;18.27;41.85;100616.50;4164651;28;20045;-48
2021/12/22 05:48:08;;;;;;;3.10;2.33;;;;;;;18.27;41.50;100608.19;4164238;28;20440;-49
2021/12/22 05:50:12;;;;;;;2.45;2.20;;;;;;;18.27;41.56;100608.19;4164488;28;20038;-50
2021/12/22 05:52:13;;;;;;;3.75;2.35;;;;;;;18.29;41.44;100605.16;4164414;28;20045;-46
2021/12/22 05:54:15;;;;;;;2.28;2.08;;;;;;;18.30;41.37;100595.75;4164414;28;20042;-48
2021/12/22 05:56:16;;;;;;;4.40;2.38;;;;;;;18.26;41.40;100573.28;4164041;28;20045;-47
2021/12/22 05:58:18;;;;;;;4.28;2.65;;;;;;;18.27;41.60;100577.72;4164688;28;20041;-48
2021/12/22 06:00:22;;;;;;;3.13;2.10;;;;;;;18.26;41.60;100570.53;4164044;28;20432;-49
2021/12/22 06:02:23;;;;;;;3.45;2.67;;;;;;;18.12;41.28;100551.91;4178089;28;20083;-51
2021/12/22 06:04:25;;;;;;;3.88;2.55;;;;;;;18.26;41.74;100586.31;4164526;28;20041;-48
2021/12/22 06:06:32;;;;;;;3.50;2.25;;;;;;;18.25;41.70;100574.41;4163859;28;20095;-51
2021/12/22 06:08:33;;;;;;;3.15;2.45;;;;;;;18.23;41.37;100573.81;4164388;28;20038;-47
2021/12/22 06:10:35;;;;;;;3.92;2.72;;;;;;;18.25;41.48;100574.41;4164503;28;20093;-49
2021/12/22 06:12:36;;;;;;;3.45;2.70;;;;;;;18.25;41.42;100563.31;4164759;28;20025;-49
2021/12/22 06:14:38;;;;;;;2.25;1.85;;;;;;;18.04;41.38;100528.34;4179578;28;20041;-47
2021/12/22 06:16:39;;;;;;;3.42;2.05;;;;;;;18.23;41.63;100543.34;4179345;28;20045;-49
2021/12/22 06:18:44;;;;;;;3.25;2.25;;;;;;;18.20;41.47;100541.16;4163961;28;20448;-48
2021/12/22 06:20:48;;;;;;;2.77;2.33;;;;;;;18.24;41.22;100541.44;4163395;28;20041;-46
2021/12/22 06:22:50;;;;;;;3.38;2.40;;;;;;;18.24;41.46;100544.22;4164143;28;20275;-46
2021/12/22 06:24:52;;;;;;;2.40;2.20;;;;;;;18.23;41.58;100545.28;4162934;28;20049;-47
2021/12/22 06:26:53;;;;;;;3.88;2.25;;;;;;;18.22;41.70;100538.94;4162827;28;20110;-46
2021/12/22 06:28:54;;;;;;;3.40;2.70;;;;;;;18.20;41.26;100543.91;4163760;28;20038;-47
2021/12/22 06:30:56;;;;;;;2.70;2.20;;;;;;;18.16;41.36;100541.97;4164477;28;20469;-48
2021/12/22 06:32:57;;;;;;;6.43;2.88;;;;;;;18.20;41.48;100545.88;4164822;28;20103;-47
2021/12/22 06:34:58;;;;;;;2.85;2.40;;;;;;;18.19;41.69;100541.41;4164370;28;20099;-50
2021/12/22 06:37:00;;;;;;;4.55;2.38;;;;;;;18.14;41.63;100533.91;4164534;28;20046;-48
2021/12/22 06:39:03;;;;;;;4.22;2.17;;;;;;;18.17;41.77;100527.00;4165050;28;20037;-48
2021/12/22 06:41:06;;;;;;;3.70;2.40;;;;;;;18.17;41.51;100530.59;4167331;28;20164;-45
2021/12/22 06:43:08;;;;;;;2.75;2.15;;;;;;;18.17;41.63;100516.75;4166137;28;20046;-46
2021/12/22 06:45:12;;;;;;;2.47;2.13;;;;;;;18.15;41.29;100510.69;4168231;28;20046;-48
2021/12/22 06:47:14;;;;;;;2.23;2.00;;;;;;;18.15;41.56;100507.91;4167677;28;20038;-50
2021/12/22 06:49:15;;;;;;;2.70;2.08;;;;;;;18.16;41.45;100519.81;4166955;28;20451;-47
2021/12/22 06:51:17;;;;;;;2.72;2.50;;;;;;;18.14;41.60;100511.75;4167730;28;20091;-48
2021/12/22 06:53:18;;;;;;;3.05;2.30;;;;;;;18.13;41.50;100504.56;4167219;28;20091;-50
2021/12/22 06:55:19;;;;;;;3.97;2.35;;;;;;;18.13;41.62;100487.94;4166980;28;20473;-48
2021/12/22 06:57:22;;;;;;;2.90;2.60;;;;;;;18.13;41.61;100487.13;4167202;28;20049;-52
2021/12/22 06:59:24;;;;;;;2.75;2.30;;;;;;;18.12;41.41;100479.94;4166797;28;20492;-49
2021/12/22 07:01:25;;;;;;;3.10;2.28;;;;;;;18.12;41.58;100475.22;4181344;28;20045;-49
2021/12/22 07:03:27;;;;;;;3.85;2.42;;;;;;;18.10;41.48;100482.97;4172290;28;20029;-48
2021/12/22 07:05:28;;;;;;;2.42;2.08;;;;;;;18.11;41.35;100468.03;4183963;28;20029;-47
2021/12/22 07:07:30;;;;;;;2.80;2.50;;;;;;;18.07;41.52;100460.53;4183634;28;20091;-49
2021/12/22 07:09:31;;;;;;;2.53;2.20;;;;;;;18.07;41.75;100466.91;4183516;28;20097;-47
2021/12/22 07:11:35;;;;;;;4.18;2.67;;;;;;;18.06;41.67;100459.72;4178796;28;20114;-49
2021/12/22 07:13:37;;;;;;;2.95;2.38;;;;;;;18.02;41.62;100453.03;4170490;28;20041;-51
2021/12/22 07:15:38;;;;;;;3.47;2.80;;;;;;;18.06;41.33;100454.16;4172249;28;20036;-48
2021/12/22 07:17:41;;;;;;;4.65;2.80;;;;;;;18.04;41.38;100446.13;4172939;28;20119;-49
2021/12/22 07:19:43;;;;;;;3.42;2.45;;;;;;;18.03;41.77;100427.03;4167348;28;20080;-48
2021/12/22 07:21:44;;;;;;;3.17;2.35;;;;;;;18.02;41.65;100431.72;4176691;28;20442;-49
2021/12/22 07:23:45;;;;;;;2.75;2.50;;;;;;;17.98;41.41;100421.47;4182959;28;20094;-47
2021/12/22 07:25:47;;;;;;;3.13;2.15;;;;;;;18.04;41.37;100423.97;4183031;28;20095;-46
2021/12/22 07:27:48;;;;;;;2.95;2.63;;;;;;;18.04;41.76;100428.69;4182853;28;20415;-46
2021/12/22 07:29:50;;;;;;;3.10;2.30;;;;;;;18.05;41.39;100424.78;4183188;28;20242;-47
2021/12/22 07:31:51;;;;;;;2.42;2.22;;;;;;;18.04;41.40;100428.69;4173626;28;20443;-49
2021/12/22 07:33:59;;;;;;;3.50;2.20;;;;;;;18.02;41.33;100436.44;4175080;28;20041;-50
2021/12/22 07:36:04;;;;;;;3.63;2.38;;;;;;;18.04;41.62;100439.75;4166600;28;20057;-49
2021/12/22 07:38:31;;;;;;;3.67;2.47;;;;;;;18.01;41.40;100451.38;4166151;28;20427;-48
2021/12/22 07:40:33;;;;;;;3.30;2.55;;;;;;;18.02;41.68;100444.75;4174332;28;20289;-47
2021/12/22 07:42:35;;;;;;;3.20;2.83;;;;;;;18.03;41.19;100454.72;4181560;28;20036;-49
2021/12/22 07:44:37;;;;;;;3.10;2.30;;;;;;;17.95;41.63;100449.69;4182461;28;20045;-48
2021/12/22 07:46:41;;;;;;;3.45;2.45;;;;;;;18.00;41.29;100455.25;4183345;28;20411;-47
2021/12/22 07:48:42;;;;;;;2.75;2.50;;;;;;;17.99;41.67;100446.09;4182623;28;20037;-49
2021/12/22 07:50:44;;;;;;;3.70;2.30;;;;;;;18.00;41.39;100441.41;4180754;28;20142;-48
2021/12/22 07:52:45;;;;;;;3.28;2.42;;;;;;;17.73;41.51;100387.09;4182322;28;20199;-47
2021/12/22 07:54:49;;;;;;;2.97;2.58;;;;;;;17.98;41.29;100427.84;4182308;28;20040;-48
2021/12/22 07:56:52;;;;;;;3.13;2.80;;;;;;;17.96;41.50;100409.81;4182428;28;20036;-47
2021/12/22 07:58:54;;;;;;;2.80;2.20;;;;;;;17.95;41.57;100409.00;4182497;28;20033;-45
2021/12/22 08:00:56;;;;;;;2.70;2.20;;;;;;;17.96;41.28;100398.75;4182508;28;20041;-47
2021/12/22 08:02:58;;;;;;;2.60;2.30;;;;;;;17.94;41.47;100395.44;4182906;28;20025;-46
2021/12/22 08:04:59;;;;;;;3.35;2.60;;;;;;;17.97;41.57;100394.91;4182558;28;20099;-46
2021/12/22 08:07:00;;;;;;;3.13;2.30;;;;;;;17.89;41.37;100389.91;4182987;28;20533;-48
2021/12/22 08:09:03;;;;;;;2.50;2.17;;;;;;;17.93;41.53;100402.09;4180683;28;20476;-46
2021/12/22 08:11:04;;;;;;;2.60;2.33;;;;;;;17.92;41.77;100404.03;4180946;28;20044;-46
2021/12/22 08:13:06;;;;;;;4.30;2.53;;;;;;;17.91;41.39;100412.59;4172062;28;20037;-46
2021/12/22 08:15:07;;;;;;;2.97;2.45;;;;;;;17.92;41.64;100405.97;4175018;28;20431;-49
2021/12/22 08:17:10;;;;;;;2.30;2.10;;;;;;;17.91;41.55;100390.44;4176950;28;20163;-46
2021/12/22 08:19:12;;;;;;;3.92;2.08;;;;;;;17.92;41.74;100384.66;4165403;28;20073;-46
2021/12/22 08:21:16;;;;;;;3.45;2.38;;;;;;;17.89;41.46;100381.59;4176208;28;20103;-49
2021/12/22 08:23:18;;;;;;;4.03;2.47;;;;;;;17.92;41.17;100386.59;4165105;28;20110;-47
2021/12/22 08:25:22;;;;;;;2.88;2.20;;;;;;;17.93;41.61;100385.47;4166289;28;20100;-47
2021/12/22 08:29:46;;;;;;;2.33;2.00;;;;;;;17.98;41.43;100366.09;4181248;28;20083;-49
2021/12/22 08:31:47;;;;;;;2.50;2.30;;;;;;;17.99;41.59;100356.69;4181676;28;20383;-51
2021/12/22 08:33:49;;;;;;;2.95;2.28;;;;;;;17.96;41.28;100335.09;4182638;28;20082;-49
2021/12/22 08:40:32;;;;;;;2.40;2.20;;;;;;;18.02;41.50;100334.81;4182066;28;20527;-46
2021/12/22 08:42:34;;;;;;;2.72;2.50;;;;;;;18.03;41.42;100344.78;4166530;28;20099;-46
2021/12/22 08:44:35;;;;;;;2.92;2.42;;;;;;;18.06;41.49;100334.28;4178910;28;20107;-46
2021/12/22 08:46:42;;;;;;;2.38;2.10;;;;;;;18.05;41.30;100333.44;4175964;28;20095;-48
2021/12/22 08:48:43;;;;;;;2.70;2.45;;;;;;;18.06;41.22;100334.28;4181533;28;20087;-48
2021/12/22 08:50:47;;;;;;;2.45;2.13;;;;;;;18.09;41.28;100342.84;4166845;28;20041;-51
2021/12/22 08:52:48;;;;;;;2.53;1.90;;;;;;;18.10;41.15;100344.53;4164259;28;20045;-50
2021/12/22 08:54:50;;;;;;;3.35;1.92;;;;;;;18.11;41.51;100351.72;4165072;28;20041;-50
2021/12/22 08:56:54;;;;;;;2.55;1.75;;;;;;;18.12;41.40;100342.31;4177860;28;20025;-47
2021/12/22 08:58:55;;;;;;;2.33;1.88;;;;;;;18.15;41.64;100322.38;4165187;28;20433;-49
2021/12/22 09:00:57;;;;;;;2.83;2.03;;;;;;;18.18;41.44;100312.66;4174635;28;20021;-46
2021/12/22 09:02:59;;;;;;;2.63;2.20;;;;;;;18.16;41.51;100315.72;4165194;28;20099;-48
2021/12/22 09:05:00;;;;;;;2.30;2.10;;;;;;;18.21;41.54;100318.50;4171129;28;20040;-49
2021/12/22 09:07:02;;;;;;;2.28;1.85;;;;;;;18.22;41.29;100303.53;4175307;28;20037;-47
2021/12/22 09:09:05;;;;;;;2.58;1.98;;;;;;;18.20;41.39;100294.69;4164402;28;20443;-48
2021/12/22 09:11:06;;;;;;;2.45;1.73;;;;;;;18.27;41.45;100306.28;4178628;28;20522;-46
2021/12/22 09:13:07;;;;;;;2.42;1.77;;;;;;;18.27;41.13;100300.75;4181555;28;20049;-47
2021/12/22 09:15:09;;;;;;;3.00;1.65;;;;;;;18.23;41.37;100288.56;4165814;28;20485;-48
2021/12/22 09:17:10;;;;;;;2.03;1.80;;;;;;;18.31;41.20;100300.19;4176710;28;20025;-48
2021/12/22 09:19:12;;;;;;;2.58;2.00;;;;;;;18.29;41.19;100290.25;4181631;28;20037;-48
2021/12/22 09:21:14;;;;;;;2.33;2.03;;;;;;;18.28;41.32;100285.81;4173789;28;20038;-51
2021/12/22 09:23:15;;;;;;;2.28;2.08;;;;;;;18.31;41.19;100289.13;4165093;28;20041;-50
2021/12/22 09:25:16;;;;;;;1.85;1.65;;;;;;;18.34;41.00;100291.34;4179673;28;20079;-49
2021/12/22 09:27:18;;;;;;;2.60;2.08;;;;;;;18.29;41.30;100281.94;4181090;28;20090;-48
2021/12/22 09:29:20;;;;;;;2.33;1.70;;;;;;;18.37;41.30;100291.63;4176890;28;20068;-49
2021/12/22 09:31:22;;;;;;;1.92;1.60;;;;;;;18.37;40.93;100299.06;4164883;28;20103;-51
2021/12/22 09:33:25;;;;;;;1.85;1.63;;;;;;;18.39;41.30;100296.88;4180606;28;20048;-48
2021/12/22 09:35:27;;;;;;;2.20;1.90;;;;;;;18.40;41.07;100298.53;4165449;28;20037;-47
2021/12/22 09:37:29;;;;;;;1.65;1.55;;;;;;;18.38;41.20;100289.69;4176302;28;20029;-51
2021/12/22 09:39:30;;;;;;;1.90;1.60;;;;;;;18.39;40.83;100289.38;4165034;28;20046;-47
2021/12/22 09:41:33;;;;;;;1.90;1.63;;;;;;;18.41;41.11;100300.19;4165995;28;20087;-50
2021/12/22 09:43:35;;;;;;;1.60;1.42;;;;;;;18.40;41.02;100293.00;4179835;28;20102;-49
2021/12/22 09:45:42;;;;;;;1.40;1.30;;;;;;;18.35;40.82;100285.50;4169911;28;20048;-49
2021/12/22 09:48:15;;;;;;;2.03;1.50;;;;;;;18.44;40.92;100299.63;4176490;28;20083;-46